»·PEaware :: SWA619 KLAS-KSAN

SWA619 :: KLAS-KSAN

FLIGHT INFORMATION

Flight Status: Arrived
Operator:
Southwest Airlines
More flights by this operator :: More flights under this callsign
Pilot: Anonymous 15452 (15452)
Aircraft: BOEING 737-200
(B732)
More flights by this aircraft type
Origin: KLAS McCarran Intl
United States
Destination: KSAN San Diego Intl-Lindbergh
United States
More flights between these airports :: More routes between these airports
Route: +MCCRN5 TNP BARET5
File this flight plan on PilotEdge
Remarks:
Altitude:
(Current/Filed)
30,000ft
Speed:
(Current/Filed)
420kts
Departed: 12-Jan-18 10:02 PM
Arrived: 12-Jan-18 11:09 PM
Distance/Time
Traveled:
226nm/1:06
Distance/Time
To Go:
Arrived

Flight Plot

Page will automatically refresh every two minutes.

Flight plan parsing failed; only flown route is shown


Map Options




Map Legend


Flown Route
Filed Route
Departure Airport
Arrival Airport
Navaid (VOR, NDB)
Fix

Horizontal Profiles

Position Reports

Time Latitude Longitude Heading Altitude Ground
Speed
12-Jan-18 21:42 36.080553 -115.145708 270 2123ft 0kts
12-Jan-18 21:43 36.080553 -115.145708 270 2123ft 0kts
12-Jan-18 21:44 36.080553 -115.145708 270 2123ft 0kts
12-Jan-18 21:45 36.080553 -115.145708 270 2123ft 0kts
12-Jan-18 21:46 36.080553 -115.145708 270 2123ft 0kts
12-Jan-18 21:47 36.080553 -115.145708 270 2123ft 0kts
12-Jan-18 21:48 36.080553 -115.145708 270 2123ft 0kts
12-Jan-18 21:49 36.080553 -115.145708 270 2123ft 0kts
12-Jan-18 21:50 36.080553 -115.145708 270 2123ft 0kts
12-Jan-18 21:51 36.080553 -115.145708 270 2123ft 0kts
12-Jan-18 21:52 36.080553 -115.145708 270 2123ft 0kts
12-Jan-18 21:53 36.080553 -115.145708 270 2123ft 0kts
12-Jan-18 21:54 36.080553 -115.145708 270 2123ft 0kts
12-Jan-18 21:55 36.080553 -115.145708 270 2123ft 0kts
12-Jan-18 21:56 36.080553 -115.145708 270 2123ft 0kts
12-Jan-18 21:57 36.080553 -115.145708 270 2123ft 0kts
12-Jan-18 21:58 36.080553 -115.145708 270 2123ft 0kts
12-Jan-18 21:59 36.080553 -115.145708 270 2123ft 0kts
12-Jan-18 22:00 36.080553 -115.145708 270 2123ft 0kts
12-Jan-18 22:01 36.080553 -115.145708 270 2123ft 0kts
12-Jan-18 22:02 36.080553 -115.145708 270 2123ft 0kts
12-Jan-18 22:03 36.080553 -115.145708 270 2123ft 0kts
12-Jan-18 22:04 36.080553 -115.145708 270 2123ft 0kts
12-Jan-18 22:05 36.080789 -115.145369 169 2123ft 0kts
12-Jan-18 22:06 36.079701 -115.145127 172 2123ft 0kts
12-Jan-18 22:07 36.078265 -115.142839 89 2123ft 30kts
12-Jan-18 22:08 36.078293 -115.127761 91 2123ft 53kts
12-Jan-18 22:09 36.078271 -115.123303 91 2123ft 0kts
12-Jan-18 22:10 36.078270 -115.123262 91 2123ft 3kts
12-Jan-18 22:11 36.077944 -115.122191 128 2123ft 0kts
12-Jan-18 22:12 36.077944 -115.122191 128 2123ft 0kts
12-Jan-18 22:13 36.077944 -115.122191 128 2123ft 0kts
12-Jan-18 22:14 36.077537 -115.121566 132 2123ft 3kts
12-Jan-18 22:15 36.077436 -115.121431 132 2123ft 0kts
12-Jan-18 22:16 36.077436 -115.121431 132 2123ft 0kts
12-Jan-18 22:17 36.077436 -115.121431 132 2123ft 0kts
12-Jan-18 22:18 36.077375 -115.121376 149 2123ft 5kts
12-Jan-18 22:19 36.076436 -115.141466 270 2135ft 169kts
12-Jan-18 22:20 36.076126 -115.204778 270 5241ft 180kts
12-Jan-18 22:21 36.040455 -115.247492 201 7058ft 247kts
12-Jan-18 22:22 35.970870 -115.282919 201 9597ft 275kts
12-Jan-18 22:23 35.899968 -115.315265 201 11531ft 306kts
12-Jan-18 22:24 35.821800 -115.348028 201 14179ft 323kts
12-Jan-18 22:25 35.735627 -115.383109 201 16814ft 338kts
12-Jan-18 22:26 35.642160 -115.376893 165 19129ft 359kts
12-Jan-18 22:27 35.544999 -115.341005 163 21194ft 373kts
12-Jan-18 22:28 35.444397 -115.301286 163 22531ft 401kts
12-Jan-18 22:29 35.336308 -115.258089 163 24096ft 415kts
12-Jan-18 22:30 35.240673 -115.219881 163 25325ft 424kts
12-Jan-18 22:31 35.125546 -115.190770 184 26595ft 429kts
12-Jan-18 22:32 35.012508 -115.225864 206 27785ft 425kts
12-Jan-18 22:33 34.901972 -115.277768 204 29035ft 428kts
12-Jan-18 22:34 34.811854 -115.317667 204 29833ft 431kts
12-Jan-18 22:35 34.701613 -115.366301 204 30274ft 446kts
12-Jan-18 22:36 34.582830 -115.418558 204 30335ft 466kts
12-Jan-18 22:37 34.461337 -115.471810 204 30366ft 472kts
12-Jan-18 22:38 34.337619 -115.525890 204 30364ft 476kts
12-Jan-18 22:39 34.234145 -115.613611 237 30394ft 459kts
12-Jan-18 22:40 34.169062 -115.708879 225 30408ft 468kts
12-Jan-18 22:41 34.095410 -115.789585 226 30389ft 470kts
12-Jan-18 22:42 34.002038 -115.894688 226 30322ft 474kts
12-Jan-18 22:43 33.892054 -115.955110 179 30226ft 498kts
12-Jan-18 22:44 33.777019 -115.909936 158 30132ft 454kts
12-Jan-18 22:45 33.661935 -115.908480 194 28104ft 429kts
12-Jan-18 22:46 33.548571 -115.939126 196 26064ft 416kts
12-Jan-18 22:47 33.465344 -116.016474 243 24224ft 378kts
12-Jan-18 22:48 33.414852 -116.112371 240 24205ft 334kts
12-Jan-18 22:49 33.359944 -116.201783 221 22216ft 362kts
12-Jan-18 22:50 33.279806 -116.268103 217 20770ft 352kts
12-Jan-18 22:51 33.200718 -116.332426 218 19078ft 344kts
12-Jan-18 22:52 33.124555 -116.399159 221 17372ft 337kts
12-Jan-18 22:53 33.055634 -116.471507 227 15781ft 327kts
12-Jan-18 22:54 32.994433 -116.546066 227 14294ft 318kts
12-Jan-18 22:55 32.935764 -116.620509 228 12853ft 308kts
12-Jan-18 22:56 32.866091 -116.655525 191 11506ft 300kts
12-Jan-18 22:57 32.807408 -116.670213 195 10468ft 294kts
12-Jan-18 22:58 32.750851 -116.754559 241 8792ft 285kts
12-Jan-18 22:59 32.719296 -116.820934 241 7653ft 281kts
12-Jan-18 23:00 32.697856 -116.904249 289 6261ft 273kts
12-Jan-18 23:01 32.723055 -116.985836 291 5031ft 265kts
12-Jan-18 23:02 32.745826 -117.058362 291 4958ft 215kts
12-Jan-18 23:03 32.762767 -117.112461 291 4990ft 190kts
12-Jan-18 23:04 32.780122 -117.167852 291 4965ft 212kts
12-Jan-18 23:05 32.799337 -117.229679 291 4873ft 199kts
12-Jan-18 23:06 32.817014 -117.287563 291 4166ft 183kts
12-Jan-18 23:07 32.833466 -117.341775 291 3499ft 164kts
12-Jan-18 23:08 32.848816 -117.392469 291 2542ft 162kts
12-Jan-18 23:09 32.822870 -117.413580 152 1862ft 158kts
12-Jan-18 23:10 32.788270 -117.376422 131 1812ft 175kts
12-Jan-18 23:11 32.767764 -117.330970 104 1798ft 150kts
12-Jan-18 23:12 32.757538 -117.289041 104 1701ft 132kts
12-Jan-18 23:13 32.747099 -117.246256 104 787ft 133kts
12-Jan-18 23:14 32.737186 -117.204527 105 96ft 131kts
12-Jan-18 23:15 32.731049 -117.181116 167 21ft 23kts
12-Jan-18 23:16 32.731772 -117.186490 284 22ft 24kts
12-Jan-18 23:17 32.732643 -117.191384 248 24ft 14kts
12-Jan-18 23:18 32.732900 -117.192007 289 24ft 1kts
12-Jan-18 23:19 32.732867 -117.195498 279 25ft 0kts
12-Jan-18 23:20 32.732867 -117.195498 279 25ft 0kts
12-Jan-18 23:21 32.732867 -117.195498 279 25ft 0kts
12-Jan-18 23:22 32.732867 -117.195498 279 25ft 0kts
12-Jan-18 23:23 32.732867 -117.195498 279 25ft 0kts
12-Jan-18 23:24 32.732867 -117.195498 279 25ft 0kts
12-Jan-18 23:25 32.732867 -117.195498 279 25ft 0kts
12-Jan-18 23:26 32.732867 -117.195498 279 25ft 0kts
12-Jan-18 23:27 32.732867 -117.195498 279 25ft 0kts
12-Jan-18 23:28 32.732867 -117.195498 279 25ft 0kts
12-Jan-18 23:29 32.768700 -117.334700 105 1833ft 152kts

Navigation Log

Ident Type
Flight plan parsing failed, navigation log unavailable